Terminal Aerodrome Forecast
Issued by NWS Shreveport, LA

Home | Current Version | Previous Version | Text Only | Print | Product List | Glossary On
Versions: 1 2 3 4 5 6 7 8 9 10 11 12 13 14 15 16 17 18 19
000
FTUS44 KSHV 232300 RRA
TAFLFK
TAF
KLFK 232345Z 2400/2424 14007KT P6SM FEW060
     FM240900 15006KT P6SM SCT015 SCT140 BKN250
      TEMPO 2410/2414 BKN015
     FM241500 19012G18KT P6SM BKN035 BKN140 OVC250
     FM241800 21013G20KT P6SM VCTS BKN045CB BKN100 BKN150=

USA.gov is the U.S. government's official web portal to all federal, state and local government web resources and services.